Terminal Aerodrome Forecast
Issued by NWS

Current Version | Previous Version | Text Only | Print | Product List | Glossary On
Versions: 1 2 3 4 5 6 7 8 9 10 11 12 13 14 15 16 17 18 19 20 21 22 23
000
FTUS42 KJAX 242338
TAFVQQ
TAF
KVQQ 242338Z 2500/2524 11008KT P6SM VCTS SCT040CB BKN090
     FM250300 VRB03KT P6SM SCT040 BKN250
     FM251500 13006KT P6SM SCT030 BKN250
     FM251800 12009KT P6SM VCTS SCT025CB BKN040=

USA.gov is the U.S. government's official web portal to all federal, state and local government web resources and services.